createdAt,value
2023-01-21T00:01:03.974Z,102095.94
2023-01-21T00:03:31.073Z,102096.81
2023-01-21T00:05:58.296Z,102109.22
2023-01-21T00:08:26.854Z,102103.03
2023-01-21T00:10:54.187Z,102110.97
2023-01-21T00:13:21.248Z,102113.63
2023-01-21T00:15:48.274Z,102116.25
2023-01-21T00:18:15.161Z,102120.63
2023-01-21T00:20:42.158Z,102125.91
2023-01-21T00:23:10.792Z,102131.22
2023-01-21T00:25:37.757Z,102128.59
2023-01-21T00:28:04.740Z,102132.19
2023-01-21T00:30:31.754Z,102139.25
2023-01-21T00:32:58.768Z,102137.47
2023-01-21T00:35:25.638Z,102134.84
2023-01-21T00:37:52.729Z,102138.38
2023-01-21T00:40:19.757Z,102147.22
2023-01-21T00:42:46.687Z,102154.28
2023-01-21T00:45:13.695Z,102150.78
2023-01-21T00:47:40.884Z,102159.56
2023-01-21T00:50:09.013Z,102159.66
2023-01-21T00:52:36.114Z,102158.81
2023-01-21T00:55:03.199Z,102176.41
2023-01-21T00:57:30.151Z,102191.41
2023-01-21T00:59:57.395Z,102192.28
2023-01-21T01:02:24.417Z,102199.38
2023-01-21T01:04:51.317Z,102202.03
2023-01-21T01:07:18.225Z,102208.22
2023-01-21T01:09:45.103Z,102215.28
2023-01-21T01:12:12.028Z,102217.09
2023-01-21T01:14:38.965Z,102214.47
2023-01-21T01:17:05.880Z,102220.63
2023-01-21T01:19:32.826Z,102230.31
2023-01-21T01:21:59.688Z,102237.41
2023-01-21T01:24:26.583Z,102224.22
2023-01-21T01:26:53.543Z,102228.59
2023-01-21T01:29:20.455Z,102237.38
2023-01-21T01:31:47.386Z,102233.91
2023-01-21T01:34:14.445Z,102246.22
2023-01-21T01:36:41.341Z,102252.41
2023-01-21T01:39:08.237Z,102247.13
2023-01-21T01:41:35.374Z,102254.22
2023-01-21T01:44:06.095Z,102270.03
2023-01-21T01:46:35.994Z,102268.28
2023-01-21T01:49:17.582Z,102265.66
2023-01-21T01:52:00.014Z,102274.44
2023-01-21T01:54:33.322Z,102285.91
2023-01-21T01:57:03.463Z,102279.75
2023-01-21T01:59:31.965Z,102283.28
2023-01-21T02:02:04.775Z,102287.69
2023-01-21T02:04:39.032Z,102287.69
2023-01-21T02:07:06.031Z,102280.69
2023-01-21T02:09:32.963Z,102298.25
2023-01-21T02:12:01.689Z,102300.03
2023-01-21T02:14:30.624Z,102298.28
2023-01-21T02:17:23.909Z,102311.47
2023-01-21T02:20:46.121Z,102302.69
2023-01-21T02:23:36.890Z,102307.13
2023-01-21T02:27:03.276Z,102308.03
2023-01-21T02:29:50.985Z,102321.22
2023-01-21T02:33:06.001Z,102323.00
2023-01-21T02:36:08.410Z,102333.59
2023-01-21T02:39:23.063Z,102319.50
2023-01-21T02:41:59.677Z,102325.66
2023-01-21T02:44:43.320Z,102327.44
2023-01-21T02:47:25.516Z,102337.06
2023-01-21T02:50:12.435Z,102330.03
2023-01-21T02:52:39.338Z,102332.69
2023-01-21T02:55:13.554Z,102332.66
2023-01-21T02:57:49.691Z,102339.69
2023-01-21T03:00:29.724Z,102340.56
2023-01-21T03:04:02.988Z,102352.84
2023-01-21T03:07:07.631Z,102347.53
2023-01-21T03:09:35.429Z,102339.56
2023-01-21T03:12:31.405Z,102346.63
2023-01-21T03:15:30.608Z,102343.94
2023-01-21T03:18:20.998Z,102341.28
2023-01-21T03:20:56.699Z,102344.75
2023-01-21T03:23:34.198Z,102331.53
2023-01-21T03:26:02.615Z,102342.09
2023-01-21T03:28:34.035Z,102343.81
2023-01-21T03:31:10.739Z,102343.81
2023-01-21T03:33:45.198Z,102332.41
2023-01-21T03:36:38.554Z,102341.19
2023-01-21T03:39:16.207Z,102338.53
2023-01-21T03:41:43.325Z,102342.91
2023-01-21T03:44:10.432Z,102346.41
2023-01-21T03:47:06.058Z,102347.25
2023-01-21T03:49:38.753Z,102353.41
2023-01-21T03:52:07.118Z,102339.34
2023-01-21T03:54:34.072Z,102332.25
2023-01-21T03:57:00.961Z,102350.72
2023-01-21T03:59:27.861Z,102342.78
2023-01-21T04:01:54.891Z,102349.84
2023-01-21T04:04:21.910Z,102342.75
2023-01-21T04:06:48.815Z,102340.97
2023-01-21T04:09:15.727Z,102347.13
2023-01-21T04:11:42.591Z,102350.66
2023-01-21T04:14:09.489Z,102352.38
2023-01-21T04:16:36.501Z,102354.16
2023-01-21T04:19:03.472Z,102351.50
2023-01-21T04:21:30.509Z,102344.41
2023-01-21T04:23:57.408Z,102349.69
2023-01-21T04:26:24.317Z,102362.91
2023-01-21T04:28:51.220Z,102358.50
2023-01-21T04:31:18.257Z,102362.03
2023-01-21T04:33:45.168Z,102355.84
2023-01-21T04:36:12.047Z,102363.78
2023-01-21T04:38:39.106Z,102366.41
2023-01-21T04:41:06.095Z,102368.19
2023-01-21T04:43:33.014Z,102369.09
2023-01-21T04:45:59.942Z,102366.44
2023-01-21T04:48:26.848Z,102369.06
2023-01-21T04:50:53.792Z,102374.34
2023-01-21T04:53:20.689Z,102374.34
2023-01-21T04:55:47.562Z,102373.44
2023-01-21T04:58:14.530Z,102379.63
2023-01-21T05:00:41.434Z,102377.81
2023-01-21T05:03:08.337Z,102379.59
2023-01-21T05:05:35.292Z,102390.16
2023-01-21T05:08:02.167Z,102392.78
2023-01-21T05:10:29.139Z,102391.03
2023-01-21T05:12:56.053Z,102384.84
2023-01-21T05:15:23.394Z,102391.00
2023-01-21T05:17:50.296Z,102391.00
2023-01-21T05:20:17.701Z,102401.56
2023-01-21T05:22:48.815Z,102397.16
2023-01-21T05:25:16.875Z,102396.25
2023-01-21T05:27:43.803Z,102411.25
2023-01-21T05:30:11.328Z,102410.38
2023-01-21T05:32:38.253Z,102411.25
2023-01-21T05:35:05.804Z,102410.34
2023-01-21T05:37:32.714Z,102413.03
2023-01-21T05:39:59.648Z,102408.63
2023-01-21T05:42:26.556Z,102420.97
2023-01-21T05:44:53.718Z,102428.03
2023-01-21T05:47:20.688Z,102430.66
2023-01-21T05:49:47.577Z,102434.16
2023-01-21T05:52:14.472Z,102429.75
2023-01-21T05:54:49.257Z,102439.44
2023-01-21T05:57:27.178Z,102443.84
2023-01-21T05:59:54.103Z,102449.16
2023-01-21T06:02:21.176Z,102446.50
2023-01-21T06:04:48.103Z,102451.81
2023-01-21T06:07:15.032Z,102453.56
2023-01-21T06:09:41.973Z,102462.38
2023-01-21T06:12:08.949Z,102461.50
2023-01-21T06:14:35.867Z,102471.22
2023-01-21T06:17:02.764Z,102463.25
2023-01-21T06:19:29.688Z,102474.72
2023-01-21T06:21:56.624Z,102473.84
2023-01-21T06:24:23.493Z,102463.25
2023-01-21T06:26:50.407Z,102466.78
2023-01-21T06:29:17.348Z,102472.06
2023-01-21T06:31:44.384Z,102473.81
2023-01-21T06:34:12.613Z,102472.03
2023-01-21T06:36:42.589Z,102477.34
2023-01-21T06:39:10.869Z,102480.88
2023-01-21T06:41:38.055Z,102487.06
2023-01-21T06:44:05.886Z,102482.63
2023-01-21T06:46:32.883Z,102484.41
2023-01-21T06:49:00.028Z,102495.00
2023-01-21T06:51:27.751Z,102480.84
2023-01-21T06:53:54.920Z,102493.19
2023-01-21T06:56:22.605Z,102502.00
2023-01-21T06:58:49.550Z,102500.22
2023-01-21T07:01:16.514Z,102501.16
2023-01-21T07:03:44.266Z,102497.56
2023-01-21T07:06:11.302Z,102505.53
2023-01-21T07:08:38.243Z,102501.09
2023-01-21T07:11:05.401Z,102517.88
2023-01-21T07:13:32.326Z,102511.66
2023-01-21T07:16:01.029Z,102521.38
2023-01-21T07:18:28.530Z,102533.72
2023-01-21T07:20:56.354Z,102522.25
2023-01-21T07:23:23.995Z,102534.59
2023-01-21T07:25:51.025Z,102534.59
2023-01-21T07:28:18.041Z,102535.47
2023-01-21T07:30:45.032Z,102532.78
2023-01-21T07:33:12.007Z,102535.41
2023-01-21T07:35:39.352Z,102538.94
2023-01-21T07:38:06.549Z,102539.84
2023-01-21T07:40:33.475Z,102538.09
2023-01-21T07:43:00.469Z,102539.84
2023-01-21T07:45:27.571Z,102536.31
2023-01-21T07:47:54.507Z,102548.69
2023-01-21T07:50:21.450Z,102555.75
2023-01-21T07:52:48.424Z,102556.63
2023-01-21T07:55:16.367Z,102553.91
2023-01-21T07:57:43.488Z,102560.88
2023-01-21T08:00:11.306Z,102567.84
2023-01-21T08:02:41.361Z,102570.47
2023-01-21T08:05:09.866Z,102569.59
2023-01-21T08:07:37.024Z,102579.31
2023-01-21T08:10:04.266Z,102575.75
2023-01-21T08:12:31.186Z,102582.84
2023-01-21T08:14:58.091Z,102581.06
2023-01-21T08:17:25.008Z,102581.09
2023-01-21T08:19:51.926Z,102574.03
2023-01-21T08:22:18.801Z,102582.03
2023-01-21T08:24:45.721Z,102582.88
2023-01-21T08:27:12.668Z,102586.41
2023-01-21T08:29:39.583Z,102593.47
2023-01-21T08:32:06.501Z,102593.44
2023-01-21T08:34:33.682Z,102598.69
2023-01-21T08:37:01.842Z,102600.47
2023-01-21T08:39:28.793Z,102597.78
2023-01-21T08:41:55.740Z,102595.13
2023-01-21T08:44:22.976Z,102597.78
2023-01-21T08:46:49.888Z,102611.00
2023-01-21T08:49:16.871Z,102597.78
2023-01-21T08:51:43.837Z,102606.59
2023-01-21T08:54:10.963Z,102612.78
2023-01-21T08:56:37.864Z,102610.09
2023-01-21T08:59:04.828Z,102615.38
2023-01-21T09:01:31.827Z,102612.69
2023-01-21T09:04:00.645Z,102617.06
2023-01-21T09:06:29.862Z,102620.53
2023-01-21T09:08:57.067Z,102617.84
2023-01-21T09:11:25.224Z,102624.00
2023-01-21T09:13:52.564Z,102632.84
2023-01-21T09:16:22.739Z,102626.63
2023-01-21T09:18:49.966Z,102624.88
2023-01-21T09:21:17.139Z,102642.44
2023-01-21T09:23:44.353Z,102648.66
2023-01-21T09:26:23.420Z,102640.69
2023-01-21T09:28:59.982Z,102663.63
2023-01-21T09:31:29.347Z,102667.16
2023-01-21T09:34:02.314Z,102661.88
2023-01-21T09:36:32.328Z,102674.25
2023-01-21T09:38:59.554Z,102678.66
2023-01-21T09:41:54.538Z,102690.13
2023-01-21T09:44:44.912Z,102688.31
2023-01-21T09:47:32.617Z,102686.53
2023-01-21T09:50:23.480Z,102698.91
2023-01-21T09:52:55.283Z,102683.00
2023-01-21T09:55:46.771Z,102697.13
2023-01-21T09:58:34.489Z,102707.66
2023-01-21T10:01:25.540Z,102704.16
2023-01-21T10:04:03.216Z,102713.84
2023-01-21T10:07:02.085Z,102723.56
2023-01-21T10:09:54.308Z,102719.13
2023-01-21T10:12:46.357Z,102711.09
2023-01-21T10:15:38.201Z,102710.22
2023-01-21T10:18:13.336Z,102710.09
2023-01-21T10:21:12.631Z,102719.84
2023-01-21T10:23:57.496Z,102719.81
2023-01-21T10:26:27.363Z,102718.00
2023-01-21T10:28:55.738Z,102708.28
2023-01-21T10:31:27.424Z,102719.75
2023-01-21T10:33:55.161Z,102720.63
2023-01-21T10:36:54.149Z,102720.63
2023-01-21T10:39:31.987Z,102723.19
2023-01-21T10:42:08.115Z,102708.19
2023-01-21T10:44:50.871Z,102724.09
2023-01-21T10:47:36.768Z,102725.00
2023-01-21T10:50:38.244Z,102718.81
2023-01-21T10:53:26.615Z,102727.63
2023-01-21T10:56:42.605Z,102726.72
2023-01-21T10:59:17.489Z,102724.06
2023-01-21T11:01:49.289Z,102717.00
2023-01-21T11:04:23.286Z,102707.25
2023-01-21T11:07:03.959Z,102716.88
2023-01-21T11:09:40.084Z,102703.59
2023-01-21T11:12:20.023Z,102705.28
2023-01-21T11:14:53.889Z,102684.06
2023-01-21T11:17:36.793Z,102692.84
2023-01-21T11:20:21.850Z,102711.28
2023-01-21T11:22:49.217Z,102696.28
2023-01-21T11:25:35.539Z,102697.94
2023-01-21T11:28:04.688Z,102690.81
2023-01-21T11:30:49.993Z,102693.41
2023-01-21T11:33:27.265Z,102682.78
2023-01-21T11:35:55.619Z,102693.38
2023-01-21T11:38:30.734Z,102684.50
2023-01-21T11:41:11.053Z,102697.59
2023-01-21T11:43:47.028Z,102693.09
2023-01-21T11:46:40.215Z,102685.09
2023-01-21T11:49:07.072Z,102696.63
2023-01-21T11:51:39.835Z,102695.69
2023-01-21T11:54:24.259Z,102694.78
2023-01-21T11:57:00.484Z,102687.72
2023-01-21T11:59:36.412Z,102692.97
2023-01-21T12:02:25.093Z,102699.13
2023-01-21T12:05:20.775Z,102698.25
2023-01-21T12:07:51.388Z,102700.88
2023-01-21T12:10:42.454Z,102699.94
2023-01-21T12:13:17.470Z,102691.94
2023-01-21T12:15:50.135Z,102693.91
2023-01-21T12:18:41.713Z,102686.09
2023-01-21T12:21:37.255Z,102682.28
2023-01-21T12:24:48.640Z,102684.78
2023-01-21T12:27:35.230Z,102682.13
2023-01-21T12:30:32.817Z,102695.53
2023-01-21T12:33:13.631Z,102699.69
2023-01-21T12:35:52.121Z,102702.84
2023-01-21T12:38:42.922Z,102690.00
2023-01-21T12:41:24.525Z,102700.84
2023-01-21T12:44:48.145Z,102709.91
2023-01-21T12:47:44.489Z,102712.75
2023-01-21T12:50:29.375Z,102701.34
2023-01-21T12:53:10.090Z,102703.22
2023-01-21T12:56:10.965Z,102705.97
2023-01-21T12:58:49.082Z,102701.59
2023-01-21T13:01:35.875Z,102705.06
2023-01-21T13:05:01.646Z,102698.91
2023-01-21T13:07:55.787Z,102706.00
2023-01-21T13:10:42.252Z,102710.47
2023-01-21T13:13:30.074Z,102701.59
2023-01-21T13:16:03.955Z,102702.47
2023-01-21T13:18:41.356Z,102698.91
2023-01-21T13:21:20.077Z,102707.72
2023-01-21T13:24:43.303Z,102707.72
2023-01-21T13:27:31.964Z,102711.28
2023-01-21T13:30:14.004Z,102709.56
2023-01-21T13:33:22.985Z,102714.88
2023-01-21T13:36:01.750Z,102709.63
2023-01-21T13:39:01.483Z,102715.00
2023-01-21T13:41:53.553Z,102713.34
2023-01-21T13:44:40.833Z,102722.16
2023-01-21T13:47:20.195Z,102714.25
2023-01-21T13:50:17.296Z,102713.38
2023-01-21T13:53:15.031Z,102724.88
2023-01-21T13:56:21.643Z,102717.84
2023-01-21T13:59:12.435Z,102725.84
2023-01-21T14:01:53.717Z,102721.44
2023-01-21T14:04:35.091Z,102711.75
2023-01-21T14:07:18.579Z,102707.44
2023-01-21T14:09:56.409Z,102702.91
2023-01-21T14:13:03.663Z,102718.88
2023-01-21T14:15:36.389Z,102722.41
2023-01-21T14:18:24.715Z,102723.28
2023-01-21T14:21:05.113Z,102717.03
2023-01-21T14:23:54.877Z,102709.94
2023-01-21T14:26:44.864Z,102708.16
2023-01-21T14:29:36.714Z,102724.09
2023-01-21T14:32:12.844Z,102723.22
2023-01-21T14:34:55.766Z,102725.06
2023-01-21T14:37:46.296Z,102722.41
2023-01-21T14:40:32.068Z,102722.41
2023-01-21T14:42:59.260Z,102721.56
2023-01-21T14:45:55.711Z,102711.91
2023-01-21T14:48:40.812Z,102719.03
2023-01-21T14:51:07.628Z,102728.78
2023-01-21T14:53:50.039Z,102718.19
2023-01-21T14:56:25.436Z,102721.78
2023-01-21T14:59:06.923Z,102717.44
2023-01-21T15:01:47.955Z,102714.75
2023-01-21T15:04:31.342Z,102720.94
2023-01-21T15:07:21.635Z,102720.06
2023-01-21T15:09:54.827Z,102720.97
2023-01-21T15:12:28.857Z,102717.44
2023-01-21T15:15:03.769Z,102720.13
2023-01-21T15:17:56.274Z,102730.75
2023-01-21T15:20:45.845Z,102729.06
2023-01-21T15:23:31.032Z,102729.94
2023-01-21T15:26:11.242Z,102723.78
2023-01-21T15:28:45.355Z,102726.47
2023-01-21T15:31:40.865Z,102720.34
2023-01-21T15:34:15.318Z,102714.22
2023-01-21T15:36:53.307Z,102702.78
2023-01-21T15:39:33.265Z,102716.97
2023-01-21T15:42:35.595Z,102716.16
2023-01-21T15:45:36.443Z,102710.84
2023-01-21T15:48:30.173Z,102715.34
2023-01-21T15:51:29.135Z,102711.03
2023-01-21T15:54:52.389Z,102720.72
2023-01-21T15:57:29.337Z,102721.56
2023-01-21T16:00:05.072Z,102715.31
2023-01-21T16:03:23.756Z,102712.72
2023-01-21T16:06:04.581Z,102728.69
2023-01-21T16:09:11.842Z,102726.13
2023-01-21T16:12:30.400Z,102729.72
2023-01-21T16:15:19.634Z,102738.59
2023-01-21T16:18:23.307Z,102726.28
2023-01-21T16:20:53.376Z,102731.66
2023-01-21T16:23:22.825Z,102726.34
2023-01-21T16:25:52.610Z,102735.22
2023-01-21T16:28:21.027Z,102721.97
2023-01-21T16:30:57.275Z,102728.16
2023-01-21T16:33:25.435Z,102724.66
2023-01-21T16:35:56.961Z,102729.97
2023-01-21T16:38:29.869Z,102722.03
2023-01-21T16:41:11.569Z,102731.81
2023-01-21T16:43:56.665Z,102732.69
2023-01-21T16:46:39.143Z,102730.03
2023-01-21T16:49:16.882Z,102730.03
2023-01-21T16:52:02.439Z,102737.09
2023-01-21T16:54:32.576Z,102743.28
2023-01-21T16:57:21.157Z,102730.00
2023-01-21T16:59:48.797Z,102737.97
2023-01-21T17:02:31.920Z,102737.06
2023-01-21T17:05:02.291Z,102744.16
2023-01-21T17:07:35.414Z,102732.66
2023-01-21T17:10:06.991Z,102732.63
2023-01-21T17:12:36.357Z,102734.44
2023-01-21T17:15:36.193Z,102739.69
2023-01-21T17:18:06.067Z,102737.06
2023-01-21T17:20:41.801Z,102745.91
2023-01-21T17:23:17.557Z,102743.25
2023-01-21T17:26:03.330Z,102732.63
2023-01-21T17:28:31.641Z,102737.91
2023-01-21T17:31:16.823Z,102742.28
2023-01-21T17:33:44.409Z,102740.53
2023-01-21T17:36:16.341Z,102749.38
2023-01-21T17:38:46.129Z,102754.66
2023-01-21T17:41:25.512Z,102751.13
2023-01-21T17:43:55.686Z,102750.25
2023-01-21T17:46:24.299Z,102745.81
2023-01-21T17:48:57.538Z,102744.09
2023-01-21T17:51:28.548Z,102748.50
2023-01-21T17:54:01.060Z,102751.16
2023-01-21T17:56:55.866Z,102745.81
2023-01-21T17:59:34.227Z,102742.28
2023-01-21T18:02:03.631Z,102739.63
2023-01-21T18:04:30.814Z,102742.31
2023-01-21T18:06:58.516Z,102719.34
2023-01-21T18:09:28.179Z,102734.34
2023-01-21T18:11:58.056Z,102720.25
2023-01-21T18:14:26.636Z,102732.59
2023-01-21T18:16:54.281Z,102728.19
2023-01-21T18:19:37.805Z,102733.50
2023-01-21T18:22:06.920Z,102733.50
2023-01-21T18:24:35.510Z,102726.44
2023-01-21T18:27:02.625Z,102722.09
2023-01-21T18:29:31.037Z,102726.50
2023-01-21T18:31:58.818Z,102725.66
2023-01-21T18:34:26.097Z,102727.44
2023-01-21T18:36:53.211Z,102734.50
2023-01-21T18:39:20.652Z,102722.16
2023-01-21T18:41:47.941Z,102726.59
2023-01-21T18:44:16.155Z,102722.22
2023-01-21T18:46:43.644Z,102731.03
2023-01-21T18:49:20.622Z,102746.06
2023-01-21T18:51:47.883Z,102737.22
2023-01-21T18:54:16.464Z,102741.69
2023-01-21T18:56:44.360Z,102748.75
2023-01-21T18:59:20.084Z,102751.41
2023-01-21T19:01:47.118Z,102733.78
2023-01-21T19:04:18.066Z,102734.63
2023-01-21T19:06:46.766Z,102739.06
2023-01-21T19:09:23.523Z,102736.44
2023-01-21T19:11:51.919Z,102741.75
2023-01-21T19:14:18.917Z,102734.69
2023-01-21T19:16:46.177Z,102739.09
2023-01-21T19:19:15.761Z,102740.88
2023-01-21T19:21:42.953Z,102733.84
2023-01-21T19:24:12.021Z,102734.75
2023-01-21T19:26:39.419Z,102736.47
2023-01-21T19:29:13.989Z,102725.88
2023-01-21T19:31:41.021Z,102730.31
2023-01-21T19:34:09.289Z,102731.22
2023-01-21T19:36:36.153Z,102728.59
2023-01-21T19:39:03.130Z,102732.13
2023-01-21T19:41:30.079Z,102725.16
2023-01-21T19:43:56.982Z,102735.75
2023-01-21T19:46:24.207Z,102738.38
2023-01-21T19:48:53.478Z,102733.13
2023-01-21T19:51:20.638Z,102732.25
2023-01-21T19:53:47.632Z,102737.53
2023-01-21T19:56:24.176Z,102732.25
2023-01-21T19:58:51.394Z,102727.88
2023-01-21T20:01:18.507Z,102738.47
2023-01-21T20:03:58.685Z,102730.53
2023-01-21T20:06:26.590Z,102741.09
2023-01-21T20:08:53.544Z,102741.97
2023-01-21T20:11:20.782Z,102745.50
2023-01-21T20:13:47.749Z,102731.41
2023-01-21T20:16:21.249Z,102734.03
2023-01-21T20:18:49.674Z,102721.69
2023-01-21T20:21:16.859Z,102741.09
2023-01-21T20:23:43.771Z,102730.47
2023-01-21T20:26:21.395Z,102739.25
2023-01-21T20:28:51.186Z,102720.69
2023-01-21T20:31:19.030Z,102718.00
2023-01-21T20:33:46.027Z,102721.56
2023-01-21T20:36:22.851Z,102725.97
2023-01-21T20:38:50.496Z,102724.19
2023-01-21T20:41:17.453Z,102705.69
2023-01-21T20:43:44.414Z,102719.81
2023-01-21T20:46:25.236Z,102711.88
2023-01-21T20:48:52.297Z,102728.66
2023-01-21T20:51:20.228Z,102731.28
2023-01-21T20:53:47.322Z,102717.19
2023-01-21T20:56:19.919Z,102740.13
2023-01-21T20:58:50.411Z,102741.03
2023-01-21T21:01:20.542Z,102742.75
2023-01-21T21:03:48.104Z,102743.63
2023-01-21T21:06:19.311Z,102742.75
2023-01-21T21:08:47.767Z,102755.97
2023-01-21T21:11:16.179Z,102748.00
2023-01-21T21:13:46.376Z,102732.97
2023-01-21T21:16:22.293Z,102748.81
2023-01-21T21:18:50.063Z,102749.69
2023-01-21T21:21:20.607Z,102759.38
2023-01-21T21:23:50.598Z,102759.41
2023-01-21T21:26:22.948Z,102748.75
2023-01-21T21:28:54.511Z,102751.38
2023-01-21T21:31:23.064Z,102741.63
2023-01-21T21:33:50.534Z,102732.78
2023-01-21T21:36:23.309Z,102736.31
2023-01-21T21:38:52.084Z,102739.84
2023-01-21T21:41:43.848Z,102731.00
2023-01-21T21:44:11.779Z,102734.50
2023-01-21T21:46:57.640Z,102736.28
2023-01-21T21:49:24.738Z,102725.69
2023-01-21T21:51:51.684Z,102727.44
2023-01-21T21:54:18.825Z,102728.28
2023-01-21T21:56:46.770Z,102721.22
2023-01-21T21:59:14.486Z,102730.91
2023-01-21T22:01:43.091Z,102718.56
2023-01-21T22:04:10.682Z,102733.53
2023-01-21T22:06:37.838Z,102725.53
2023-01-21T22:09:05.253Z,102730.81
2023-01-21T22:11:32.189Z,102725.50
2023-01-21T22:14:03.619Z,102728.16
2023-01-21T22:16:31.350Z,102708.78
2023-01-21T22:18:59.675Z,102728.22
2023-01-21T22:21:31.836Z,102716.75
2023-01-21T22:24:00.087Z,102700.88
2023-01-21T22:26:28.450Z,102713.22
2023-01-21T22:28:55.690Z,102700.88
2023-01-21T22:31:28.519Z,102716.75
2023-01-21T22:33:57.167Z,102712.31
2023-01-21T22:36:27.031Z,102714.13
2023-01-21T22:38:54.382Z,102714.06
2023-01-21T22:41:23.368Z,102717.63
2023-01-21T22:43:51.830Z,102707.91
2023-01-21T22:46:29.871Z,102713.22
2023-01-21T22:48:57.505Z,102705.25
2023-01-21T22:51:24.837Z,102710.59
2023-01-21T22:53:52.979Z,102687.66
2023-01-21T22:56:28.177Z,102693.75
2023-01-21T22:59:07.063Z,102705.25
2023-01-21T23:01:34.108Z,102700.84
2023-01-21T23:04:01.099Z,102687.59
2023-01-21T23:06:28.775Z,102695.53
2023-01-21T23:08:56.097Z,102686.75
2023-01-21T23:11:23.262Z,102687.63
2023-01-21T23:13:52.717Z,102701.72
2023-01-21T23:16:21.155Z,102705.22
2023-01-21T23:18:48.623Z,102695.56
2023-01-21T23:21:19.869Z,102705.25
2023-01-21T23:23:46.983Z,102698.16
2023-01-21T23:26:14.545Z,102684.94
2023-01-21T23:28:41.734Z,102672.56
2023-01-21T23:31:18.341Z,102670.81
2023-01-21T23:33:50.037Z,102674.34
2023-01-21T23:36:17.688Z,102663.72
2023-01-21T23:38:44.956Z,102657.56
2023-01-21T23:41:16.849Z,102665.50
2023-01-21T23:43:44.005Z,102674.34
2023-01-21T23:46:18.237Z,102669.00
2023-01-21T23:48:45.651Z,102667.25
2023-01-21T23:51:15.065Z,102660.16
2023-01-21T23:53:42.212Z,102676.94
2023-01-21T23:56:23.148Z,102681.34
2023-01-21T23:58:50.757Z,102676.09
